Time;durP1;ratioP1;P1;durP2;ratioP2;P2;SDS_P1;SDS_P2;PMS_P1;PMS_P2;Temp;Humidity;BMP_temperature;BMP_pressure;BME280_temperature;BME280_humidity;BME280_pressure;Samples;Min_cycle;Max_cycle;Signal;HPM_P1;HPM_P2
2022/08/13 00:00:59;;;;;;;2.45;1.25;;;27.40;73.20;;;;;;5093357;28;20032;-53
2022/08/13 00:03:28;;;;;;;2.50;1.60;;;27.60;51.60;;;;;;5093204;28;20032;-52
2022/08/13 00:05:54;;;;;;;1.73;1.40;;;;;;;;;;5093242;28;20121;-51
2022/08/13 00:08:23;;;;;;;3.28;1.27;;;27.30;86.70;;;;;;5093104;28;20027;-51
2022/08/13 00:10:50;;;;;;;1.67;1.27;;;27.70;87.00;;;;;;5093054;28;20024;-50
2022/08/13 00:13:18;;;;;;;1.30;1.20;;;27.40;86.70;;;;;;5092983;28;20035;-54
2022/08/13 00:15:45;;;;;;;2.47;1.50;;;27.60;86.90;;;;;;5074757;28;20387;-50
2022/08/13 00:18:16;;;;;;;1.83;1.42;;;27.60;51.40;;;;;;5093003;28;20028;-53
2022/08/13 00:20:50;;;;;;;1.30;1.20;;;27.50;86.70;;;;;;5093043;28;20016;-54
2022/08/13 00:23:18;;;;;;;1.30;1.20;;;27.80;87.40;;;;;;5092475;28;20028;-53
2022/08/13 00:25:47;;;;;;;2.25;1.30;;;27.30;86.80;;;;;;5092792;28;20107;-53
2022/08/13 00:28:18;;;;;;;1.83;1.13;;;27.50;51.50;;;;;;5092759;28;20386;-54
2022/08/13 00:30:46;;;;;;;1.50;1.30;;;27.60;51.80;;;;;;5092792;28;20024;-54
2022/08/13 00:33:15;;;;;;;1.42;1.33;;;27.60;87.10;;;;;;5092555;28;20067;-53
2022/08/13 00:35:50;;;;;;;1.42;1.33;;;27.70;87.00;;;;;;5092700;28;20020;-51
2022/08/13 00:38:22;;;;;;;1.40;1.08;;;27.80;87.20;;;;;;5092742;28;20036;-51
2022/08/13 00:40:54;;;;;;;1.30;1.20;;;27.50;87.00;;;;;;5092617;28;20032;-51
2022/08/13 00:43:22;;;;;;;1.58;1.48;;;27.70;87.20;;;;;;5092827;28;20020;-52
2022/08/13 00:45:48;;;;;;;1.25;1.15;;;27.30;86.80;;;;;;5092543;28;20131;-50
2022/08/13 00:50:59;;;;;;;2.22;1.30;;;27.60;87.20;;;;;;5092586;28;20030;-52
2022/08/13 00:53:26;;;;;;;1.63;1.30;;;;;;;;;;5092414;28;20027;-51
2022/08/13 00:55:56;;;;;;;1.30;1.20;;;27.60;51.70;;;;;;5092174;28;20127;-51
2022/08/13 00:58:23;;;;;;;1.80;1.33;;;27.80;87.40;;;;;;5092688;28;20048;-51
2022/08/13 01:00:51;;;;;;;2.55;1.50;;;27.70;51.70;;;;;;5092422;28;20028;-52
2022/08/13 01:03:18;;;;;;;3.00;1.83;;;27.70;51.70;;;;;;5092321;28;20435;-51
2022/08/13 01:05:46;;;;;;;1.48;1.20;;;28.00;87.10;;;;;;5092299;28;20024;-52
2022/08/13 01:08:16;;;;;;;1.38;1.23;;;28.00;87.30;;;;;;5092283;28;20394;-51
2022/08/13 01:10:43;;;;;;;1.67;1.40;;;27.50;87.40;;;;;;5092304;28;20024;-51
2022/08/13 01:13:11;;;;;;;1.20;1.10;;;27.70;87.20;;;;;;5092286;28;20032;-52
2022/08/13 01:15:39;;;;;;;1.67;1.50;;;27.60;51.70;;;;;;5092247;28;20126;-52
2022/08/13 01:18:05;;;;;;;1.25;1.15;;;;;;;;;;5092128;28;20044;-51
2022/08/13 01:20:32;;;;;;;1.65;1.27;;;27.60;51.80;;;;;;5092133;28;20024;-50
2022/08/13 01:22:58;;;;;;;1.27;1.17;;;27.90;87.20;;;;;;5092140;28;20048;-51
2022/08/13 01:25:25;;;;;;;2.05;1.23;;;27.70;51.90;;;;;;5092083;28;20035;-51
2022/08/13 01:27:52;;;;;;;1.27;1.17;;;27.70;51.80;;;;;;5092022;28;20070;-50
2022/08/13 01:30:20;;;;;;;1.55;1.15;;;27.30;86.80;;;;;;5092291;28;20062;-54
2022/08/13 01:32:46;;;;;;;1.25;1.15;;;27.80;87.40;;;;;;5092921;28;20112;-51
2022/08/13 01:35:14;;;;;;;2.05;1.42;;;27.40;86.80;;;;;;5096139;28;20056;-58
2022/08/13 01:37:41;;;;;;;1.23;1.13;;;27.30;86.80;;;;;;5095952;28;20452;-58
2022/08/13 01:40:08;;;;;;;2.53;1.30;;;27.50;67.80;;;;;;5095988;28;20077;-58
2022/08/13 01:42:42;;;;;;;2.03;1.20;;;27.70;82.60;;;;;;5095918;28;20402;-57
2022/08/13 01:45:10;;;;;;;1.33;1.10;;;27.60;87.00;;;;;;5095945;28;20040;-58
2022/08/13 01:50:30;;;;;;;1.40;1.30;;;;;;;;;;5096200;28;20427;-58
2022/08/13 01:53:08;;;;;;;1.17;1.08;;;27.40;87.10;;;;;;5095855;28;20108;-58
2022/08/13 01:55:39;;;;;;;1.65;1.17;;;27.80;87.40;;;;;;5095360;28;20040;-58
2022/08/13 01:58:08;;;;;;;1.42;1.25;;;27.70;51.50;;;;;;5095959;28;20103;-58
2022/08/13 02:00:35;;;;;;;1.40;1.30;;;27.30;87.00;;;;;;5095575;28;20028;-58
2022/08/13 02:03:04;;;;;;;2.20;1.30;;;27.40;87.00;;;;;;5095604;28;20044;-58
2022/08/13 02:05:31;;;;;;;1.52;1.30;;;27.40;86.80;;;;;;5095733;28;20020;-57
2022/08/13 02:07:57;;;;;;;2.30;1.33;;;;;;;;;;5095470;28;20099;-58
2022/08/13 02:10:24;;;;;;;1.40;1.30;;;;;;;;;;5095557;28;20067;-58
2022/08/13 02:12:50;;;;;;;1.33;1.23;;;27.80;87.10;;;;;;5095363;28;20095;-58
2022/08/13 02:15:17;;;;;;;1.30;1.20;;;27.30;86.80;;;;;;5095299;28;20055;-58
2022/08/13 02:17:44;;;;;;;1.40;1.30;;;27.60;49.60;;;;;;5095196;28;20138;-58
2022/08/13 02:20:17;;;;;;;1.20;1.20;;;27.30;87.20;;;;;;5095216;28;20024;-58
2022/08/13 02:22:45;;;;;;;1.40;1.10;;;27.60;50.50;;;;;;5095181;28;20070;-58
2022/08/13 02:25:12;;;;;;;1.88;1.35;;;;;;;;;;5095439;28;20008;-58
2022/08/13 02:27:38;;;;;;;1.55;1.30;;;27.50;86.90;;;;;;5095129;28;20024;-58
2022/08/13 02:30:07;;;;;;;1.70;1.27;;;27.70;82.00;;;;;;5095022;28;20069;-58
2022/08/13 02:32:35;;;;;;;1.48;1.38;;;30.60;52.20;;;;;;5094992;28;20036;-58
2022/08/13 02:35:01;;;;;;;1.85;1.02;;;27.80;49.50;;;;;;5094923;28;20051;-58
2022/08/13 02:37:27;;;;;;;2.35;1.30;;;;;;;;;;5094845;28;20036;-59
2022/08/13 02:39:53;;;;;;;1.52;1.13;;;;;;;;;;5094827;28;20097;-58
2022/08/13 02:42:21;;;;;;;1.40;1.30;;;27.50;51.30;;;;;;5095137;28;20389;-58
2022/08/13 02:44:48;;;;;;;1.20;1.10;;;27.10;51.50;;;;;;5094113;28;20024;-57
2022/08/13 02:47:20;;;;;;;1.35;1.10;;;27.60;47.70;;;;;;5094817;28;20028;-58
2022/08/13 02:49:51;;;;;;;1.50;1.20;;;;;;;;;;5094688;28;20028;-58
2022/08/13 02:52:22;;;;;;;1.40;1.30;;;27.60;51.80;;;;;;5094890;28;20165;-58
2022/08/13 02:54:49;;;;;;;1.45;1.08;;;27.50;87.10;;;;;;5094580;28;20016;-57
2022/08/13 02:57:15;;;;;;;1.27;1.13;;;;;;;;;;5094448;28;20043;-58
2022/08/13 02:59:44;;;;;;;1.20;1.10;;;;;;;;;;5094509;28;20095;-58
2022/08/13 03:02:10;;;;;;;2.33;1.13;;;27.80;65.40;;;;;;5094414;28;20055;-58
2022/08/13 03:04:36;;;;;;;1.55;1.23;;;27.60;87.20;;;;;;5094481;28;20052;-58
2022/08/13 03:07:02;;;;;;;1.30;0.95;;;27.80;87.50;;;;;;5094411;28;20059;-57
2022/08/13 03:09:30;;;;;;;1.65;1.00;;;27.60;87.20;;;;;;5094273;28;20463;-57
2022/08/13 03:11:59;;;;;;;1.65;1.10;;;27.60;87.00;;;;;;5094211;28;20020;-58
2022/08/13 03:14:28;;;;;;;2.22;1.27;;;27.60;51.70;;;;;;5094156;28;20085;-58
2022/08/13 03:16:54;;;;;;;0.93;0.93;;;27.80;87.60;;;;;;5094081;28;20046;-58
2022/08/13 03:19:20;;;;;;;1.20;1.10;;;27.30;87.30;;;;;;5094298;28;20518;-58
2022/08/13 03:21:45;;;;;;;1.38;1.27;;;27.60;87.20;;;;;;5094054;28;20036;-58
2022/08/13 03:24:17;;;;;;;1.20;1.10;;;27.60;75.60;;;;;;5094326;28;20077;-58
2022/08/13 03:26:44;;;;;;;1.13;1.02;;;;;;;;;;5093920;28;20458;-58
2022/08/13 03:29:11;;;;;;;1.27;1.17;;;27.80;87.20;;;;;;5093946;28;20089;-58
2022/08/13 03:31:37;;;;;;;1.13;1.13;;;27.70;50.30;;;;;;5093797;28;20028;-58
2022/08/13 03:34:04;;;;;;;1.75;1.40;;;27.60;49.40;;;;;;5094037;28;20068;-58
2022/08/13 03:36:30;;;;;;;1.55;1.20;;;;;;;;;;5093680;28;20503;-56
2022/08/13 03:38:57;;;;;;;1.10;1.00;;;;;;;;;;5093656;28;20478;-58
2022/08/13 03:41:23;;;;;;;1.17;1.00;;;;;;;;;;5093715;28;20040;-58
2022/08/13 03:43:50;;;;;;;1.50;0.93;;;;;;;;;;5093812;28;20024;-58
2022/08/13 03:46:20;;;;;;;1.10;1.00;;;27.60;51.80;;;;;;5093539;28;20062;-58
2022/08/13 03:48:48;;;;;;;1.33;0.93;;;27.50;87.20;;;;;;5093573;28;20032;-58
2022/08/13 03:51:15;;;;;;;1.17;1.10;;;27.70;87.30;;;;;;5093741;28;20055;-58
2022/08/13 03:53:42;;;;;;;1.60;1.13;;;;;;;;;;5093353;28;20073;-58
2022/08/13 03:56:09;;;;;;;1.50;0.98;;;27.50;87.20;;;;;;5092263;28;20036;-58
2022/08/13 03:58:37;;;;;;;1.15;1.10;;;;;;;;;;5093190;28;20047;-58
2022/08/13 04:01:04;;;;;;;0.90;0.90;;;27.40;87.20;;;;;;5093350;28;20024;-58
2022/08/13 04:03:41;;;;;;;1.15;1.00;;;27.30;87.00;;;;;;5093431;28;20028;-58
2022/08/13 04:06:15;;;;;;;0.73;0.73;;;27.30;74.50;;;;;;5093244;28;20184;-58
2022/08/13 04:08:42;;;;;;;1.20;1.10;;;27.60;52.10;;;;;;5093205;28;20020;-58
2022/08/13 04:11:11;;;;;;;1.05;0.90;;;27.10;86.70;;;;;;5074856;28;20508;-58
2022/08/13 04:13:37;;;;;;;1.48;1.38;;;27.60;51.20;;;;;;5093069;28;20024;-58
2022/08/13 04:16:18;;;;;;;1.33;1.23;;;27.40;86.90;;;;;;5092979;28;20032;-58
2022/08/13 04:18:45;;;;;;;2.08;1.30;;;27.70;87.20;;;;;;5093072;28;20027;-58
2022/08/13 04:21:14;;;;;;;1.02;0.93;;;27.70;50.60;;;;;;5092980;28;20112;-58
2022/08/13 04:23:41;;;;;;;1.52;1.10;;;27.50;87.00;;;;;;5092912;28;20390;-58
2022/08/13 04:26:08;;;;;;;1.10;1.00;;;;;;;;;;5092870;28;20386;-58
2022/08/13 04:28:34;;;;;;;1.48;1.00;;;27.60;86.80;;;;;;5092804;28;20035;-58
2022/08/13 04:31:00;;;;;;;1.92;1.10;;;27.10;86.20;;;;;;5092806;28;20063;-58
2022/08/13 04:33:27;;;;;;;1.00;1.00;;;;;;;;;;5092691;28;20096;-58
2022/08/13 04:35:53;;;;;;;1.52;1.05;;;;;;;;;;5092913;28;21978;-58
2022/08/13 04:38:20;;;;;;;1.23;0.98;;;27.60;87.00;;;;;;5092698;28;20071;-58
2022/08/13 04:40:46;;;;;;;0.98;0.88;;;27.30;86.80;;;;;;5092643;28;20032;-58
2022/08/13 04:43:13;;;;;;;1.00;1.00;;;27.30;86.90;;;;;;5092633;28;20111;-58
2022/08/13 04:45:40;;;;;;;0.90;0.70;;;27.60;51.60;;;;;;5092555;28;20041;-58
2022/08/13 04:48:09;;;;;;;1.45;1.17;;;27.60;51.60;;;;;;5092808;28;20049;-58
2022/08/13 04:50:35;;;;;;;0.85;0.82;;;;;;;;;;5092689;28;20012;-57
2022/08/13 04:53:06;;;;;;;2.33;1.23;;;27.30;84.70;;;;;;5092728;28;20081;-58
2022/08/13 04:55:32;;;;;;;1.55;1.30;;;27.50;86.90;;;;;;5092297;28;20044;-58
2022/08/13 04:57:58;;;;;;;1.50;1.10;;;27.10;86.70;;;;;;5092423;28;20063;-58
2022/08/13 05:00:25;;;;;;;0.93;0.82;;;27.40;86.90;;;;;;5092325;28;20410;-58
2022/08/13 05:02:54;;;;;;;2.28;1.27;;;27.30;86.70;;;;;;5092318;28;20114;-58
2022/08/13 05:05:24;;;;;;;1.10;1.00;;;27.90;87.40;;;;;;5092320;28;20035;-58
2022/08/13 05:07:51;;;;;;;;;;;27.50;48.90;;;;;;5093145;28;20023;-58
2022/08/13 05:10:18;;;;;;;1.20;1.10;;;;;;;;;;5092304;28;19958;-58
2022/08/13 05:12:43;;;;;;;0.90;0.90;;;27.40;86.90;;;;;;5092315;28;20032;-58
2022/08/13 05:15:12;;;;;;;0.82;0.70;;;27.70;77.40;;;;;;5092325;28;20027;-58
2022/08/13 05:17:38;;;;;;;1.17;1.08;;;;;;;;;;5092146;28;20043;-58
2022/08/13 05:20:04;;;;;;;2.33;0.90;;;27.40;82.20;;;;;;5092209;28;20024;-58
2022/08/13 05:22:30;;;;;;;1.27;1.10;;;27.40;87.10;;;;;;5092136;28;20028;-58
2022/08/13 05:24:56;;;;;;;1.40;1.17;;;27.20;86.80;;;;;;5092379;28;20028;-58
2022/08/13 05:27:22;;;;;;;1.27;1.10;;;;;;;;;;5092000;28;20020;-58
2022/08/13 05:29:48;;;;;;;1.20;1.10;;;27.40;87.10;;;;;;5092027;28;20413;-58
2022/08/13 05:32:15;;;;;;;2.85;1.02;;;27.70;87.10;;;;;;5092149;28;20020;-59
2022/08/13 05:34:41;;;;;;;1.02;0.93;;;;;;;;;;5091957;28;20062;-58
2022/08/13 05:37:06;;;;;;;1.20;1.00;;;27.50;86.70;;;;;;5091839;28;20498;-58
2022/08/13 05:39:34;;;;;;;1.50;1.17;;;27.50;86.50;;;;;;5091855;28;20024;-58
2022/08/13 05:42:00;;;;;;;1.25;1.15;;;;;;;;;;5091907;28;20030;-58
2022/08/13 05:44:26;;;;;;;1.20;1.00;;;;;;;;;;5091873;28;20099;-58
2022/08/13 05:46:52;;;;;;;1.23;1.10;;;27.50;86.80;;;;;;5091824;28;20389;-58
2022/08/13 05:49:17;;;;;;;1.10;1.00;;;27.40;86.70;;;;;;5091863;28;20016;-58
2022/08/13 05:51:44;;;;;;;1.98;1.05;;;27.50;73.60;;;;;;5092128;28;20463;-51
2022/08/13 05:54:10;;;;;;;1.00;0.90;;;27.40;86.90;;;;;;5092007;28;20107;-51
2022/08/13 05:56:37;;;;;;;1.30;1.20;;;27.90;87.40;;;;;;5091595;28;20051;-52
2022/08/13 06:03:22;;;;;;;1.25;1.05;;;27.60;72.30;;;;;;5091743;28;20432;-50
2022/08/13 06:04:40;;;;;;;1.17;1.08;;;28.00;87.40;;;;;;5091973;28;20119;-52
2022/08/13 06:07:13;;;;;;;1.30;1.00;;;27.20;87.20;;;;;;5091712;28;20107;-52
2022/08/13 06:09:39;;;;;;;2.60;0.98;;;;;;;;;;5091722;28;20050;-50
2022/08/13 06:12:05;;;;;;;1.55;1.17;;;;;;;;;;5091606;28;20032;-50
2022/08/13 06:14:35;;;;;;;1.30;1.20;;;;;;;;;;5091561;28;20528;-50
2022/08/13 06:17:02;;;;;;;1.13;1.02;;;27.50;52.00;;;;;;5091469;28;20040;-50
2022/08/13 06:19:32;;;;;;;1.20;1.00;;;28.00;87.50;;;;;;5091837;28;20028;-51
2022/08/13 06:22:02;;;;;;;2.25;0.95;;;27.10;86.80;;;;;;5095150;28;20028;-50
2022/08/13 06:24:30;;;;;;;2.53;1.00;;;27.10;86.80;;;;;;5095079;28;20107;-51
2022/08/13 06:27:01;;;;;;;1.60;1.20;;;27.70;87.30;;;;;;5095127;28;20024;-50
2022/08/13 06:29:29;;;;;;;0.95;0.90;;;27.30;51.50;;;;;;5095082;28;20470;-57
2022/08/13 06:31:55;;;;;;;3.15;1.10;;;27.30;51.70;;;;;;5095005;28;20584;-57
2022/08/13 06:34:22;;;;;;;1.70;1.30;;;;;;;;;;5094948;28;20059;-57
2022/08/13 06:36:48;;;;;;;1.48;1.02;;;27.30;86.50;;;;;;5095017;28;20039;-56
2022/08/13 06:39:15;;;;;;;1.83;1.20;;;27.70;87.40;;;;;;5094766;28;20024;-55
2022/08/13 06:41:44;;;;;;;1.27;1.05;;;27.50;51.80;;;;;;5094798;28;20024;-56
2022/08/13 06:44:11;;;;;;;1.30;1.02;;;27.80;87.30;;;;;;5094717;28;20024;-57
2022/08/13 06:46:38;;;;;;;1.17;1.00;;;;;;;;;;5094733;28;20032;-57
2022/08/13 06:49:03;;;;;;;1.52;1.20;;;27.60;87.30;;;;;;5094626;28;20446;-57
2022/08/13 06:51:29;;;;;;;4.93;1.10;;;;;;;;;;5094657;28;20024;-57
2022/08/13 06:53:55;;;;;;;1.13;1.00;;;;;;;;;;5094399;28;20489;-56
2022/08/13 06:56:26;;;;;;;1.52;0.90;;;27.70;52.30;;;;;;5094223;28;20047;-56
2022/08/13 06:58:54;;;;;;;1.30;1.05;;;27.80;88.20;;;;;;5094487;28;20124;-55
2022/08/13 07:01:22;;;;;;;3.38;1.00;;;27.10;87.70;;;;;;5094493;28;20078;-56
2022/08/13 07:03:49;;;;;;;4.28;1.13;;;27.80;88.00;;;;;;5094431;28;20032;-56
2022/08/13 07:06:19;;;;;;;4.22;1.23;;;27.50;52.40;;;;;;5094244;28;20093;-55
2022/08/13 07:08:46;;;;;;;2.13;1.25;;;;;;;;;;5094277;28;20099;-55
2022/08/13 07:11:21;;;;;;;2.95;1.20;;;27.60;87.70;;;;;;5094195;28;20028;-54
2022/08/13 07:13:49;;;;;;;3.35;1.48;;;;;;;;;;5094204;28;20043;-56
2022/08/13 07:16:16;;;;;;;2.50;0.73;;;;;;;;;;5094224;28;20042;-56
2022/08/13 07:18:46;;;;;;;2.20;1.05;;;27.50;87.30;;;;;;5094107;28;20028;-56
2022/08/13 07:21:13;;;;;;;2.70;0.98;;;27.40;87.20;;;;;;5094329;28;20028;-56
2022/08/13 07:23:41;;;;;;;4.25;1.25;;;27.50;51.70;;;;;;5094062;28;20058;-56
2022/08/13 07:26:08;;;;;;;3.97;1.45;;;27.50;51.10;;;;;;5093926;28;20020;-55
2022/08/13 07:28:34;;;;;;;2.83;1.30;;;27.70;86.80;;;;;;5093823;28;20028;-55
2022/08/13 07:31:05;;;;;;;2.47;1.20;;;27.50;50.40;;;;;;5093659;28;20029;-55
2022/08/13 07:33:34;;;;;;;2.55;1.40;;;27.50;51.50;;;;;;5094123;28;20028;-56
2022/08/13 07:36:06;;;;;;;4.10;1.42;;;27.70;86.90;;;;;;5093649;28;20023;-57
2022/08/13 07:38:33;;;;;;;4.57;1.55;;;27.30;86.80;;;;;;5093671;28;20032;-57
2022/08/13 07:41:01;;;;;;;5.57;1.45;;;27.90;86.90;;;;;;5093752;28;20020;-55
2022/08/13 07:43:36;;;;;;;3.10;1.83;;;27.50;51.60;;;;;;5093569;28;20023;-53
2022/08/13 07:46:10;;;;;;;3.00;1.30;;;27.90;86.80;;;;;;5093562;28;20028;-56
2022/08/13 07:48:37;;;;;;;6.28;1.52;;;27.80;84.70;;;;;;5093671;28;20034;-55
2022/08/13 07:51:05;;;;;;;3.88;1.63;;;27.50;49.80;;;;;;5093665;28;20077;-55
2022/08/13 07:53:35;;;;;;;4.80;1.90;;;27.80;49.00;;;;;;5093677;28;20434;-55
2022/08/13 07:56:02;;;;;;;4.70;1.77;;;27.50;48.30;;;;;;5093159;28;20089;-56
2022/08/13 07:58:29;;;;;;;5.60;2.00;;;27.80;83.30;;;;;;5093377;28;20367;-55
2022/08/13 08:00:59;;;;;;;6.18;1.77;;;27.60;83.60;;;;;;5093330;28;20021;-56
2022/08/13 08:03:32;;;;;;;6.03;1.80;;;27.50;47.60;;;;;;5093240;28;20031;-54
2022/08/13 08:05:59;;;;;;;6.22;1.85;;;27.20;81.90;;;;;;5093168;28;20024;-55
2022/08/13 08:08:26;;;;;;;5.95;1.85;;;27.40;47.80;;;;;;5093076;28;20368;-53
2022/08/13 08:10:54;;;;;;;9.88;2.20;;;27.80;83.50;;;;;;5093047;28;20382;-56
2022/08/13 08:13:20;;;;;;;2.17;1.80;;;27.40;83.30;;;;;;5092912;28;20027;-53
2022/08/13 08:15:46;;;;;;;6.78;1.77;;;27.40;83.30;;;;;;5092945;28;20028;-51
2022/08/13 08:18:13;;;;;;;4.82;1.70;;;27.00;82.90;;;;;;5093119;28;20050;-51
2022/08/13 08:20:42;;;;;;;2.35;1.30;;;27.70;83.60;;;;;;5093023;28;20108;-51
2022/08/13 08:23:11;;;;;;;6.57;1.73;;;27.60;48.40;;;;;;5092908;28;20119;-51
2022/08/13 08:25:39;;;;;;;6.07;1.50;;;27.60;46.90;;;;;;5092955;28;20122;-50
2022/08/13 08:28:04;;;;;;;2.85;1.60;;;27.40;83.50;;;;;;5092865;28;20016;-51
2022/08/13 08:30:30;;;;;;;8.48;1.50;;;;;;;;;;5093036;28;20028;-53
2022/08/13 08:32:56;;;;;;;8.70;1.58;;;27.50;83.90;;;;;;5092732;28;20058;-51
2022/08/13 08:35:24;;;;;;;2.15;1.50;;;27.70;84.10;;;;;;5092990;28;20050;-53
2022/08/13 08:43:35;;;;;;;3.35;1.38;;;27.80;48.80;;;;;;5092433;28;20039;-51
2022/08/13 08:46:05;;;;;;;5.70;1.75;;;27.50;84.10;;;;;;5092651;28;20031;-50
2022/08/13 08:48:32;;;;;;;2.17;1.50;;;27.80;84.60;;;;;;5092556;28;20028;-53
2022/08/13 08:51:00;;;;;;;4.47;1.30;;;27.90;84.20;;;;;;5092499;28;20030;-51
2022/08/13 08:53:28;;;;;;;11.00;1.58;;;28.20;84.20;;;;;;5092498;28;20111;-52
2022/08/13 08:55:54;;;;;;;8.52;1.60;;;27.60;84.40;;;;;;5092128;28;20059;-50
2022/08/13 08:58:21;;;;;;;4.43;1.60;;;27.50;84.20;;;;;;5092390;28;20451;-52
2022/08/13 09:00:48;;;;;;;3.42;1.60;;;27.90;49.00;;;;;;5092395;28;20024;-52
2022/08/13 09:03:19;;;;;;;5.30;1.65;;;28.10;48.50;;;;;;5092329;28;20077;-53
2022/08/13 09:05:48;;;;;;;5.97;1.58;;;28.00;45.00;;;;;;5092631;28;20066;-52
2022/08/13 09:08:17;;;;;;;6.75;1.50;;;28.20;84.60;;;;;;5092359;28;20035;-52
2022/08/13 09:10:44;;;;;;;3.05;1.33;;;28.10;66.80;;;;;;5092290;28;20028;-51
2022/08/13 09:13:12;;;;;;;2.22;1.35;;;28.20;84.40;;;;;;5092451;28;20137;-51
2022/08/13 09:15:40;;;;;;;2.30;1.33;;;28.10;84.30;;;;;;5092248;28;20102;-51
2022/08/13 09:18:06;;;;;;;3.70;1.30;;;28.20;77.50;;;;;;5092055;28;20078;-51
2022/08/13 09:20:33;;;;;;;3.38;1.30;;;;;;;;;;5092021;28;20039;-51
2022/08/13 09:23:04;;;;;;;3.22;1.20;;;28.30;48.90;;;;;;5092019;28;20081;-50
2022/08/13 09:25:30;;;;;;;3.42;1.60;;;28.60;84.60;;;;;;5091910;28;20028;-52
2022/08/13 09:27:57;;;;;;;1.95;1.02;;;28.50;84.20;;;;;;5092076;28;20501;-51
2022/08/13 09:30:23;;;;;;;3.35;1.35;;;;;;;;;;5092028;28;20107;-51
2022/08/13 09:32:56;;;;;;;1.88;1.20;;;28.40;48.80;;;;;;5092063;28;20103;-51
2022/08/13 09:35:23;;;;;;;4.07;1.38;;;;;;;;;;5092054;28;20360;-53
2022/08/13 09:37:50;;;;;;;2.15;1.10;;;28.50;84.10;;;;;;5091758;28;20119;-52
2022/08/13 09:40:17;;;;;;;3.33;1.20;;;28.40;83.70;;;;;;5091789;28;20410;-53
2022/08/13 09:43:15;;;;;;;2.90;1.30;;;28.60;44.90;;;;;;5073523;28;20028;-51
2022/08/13 09:45:42;;;;;;;3.25;1.33;;;;;;;;;;5091532;28;20028;-52
2022/08/13 09:48:08;;;;;;;4.07;1.13;;;;;;;;;;5091750;28;20027;-51
2022/08/13 09:50:35;;;;;;;3.95;1.40;;;28.40;83.90;;;;;;5091755;28;20108;-50
2022/08/13 09:53:02;;;;;;;2.97;1.38;;;;;;;;;;5091797;28;20047;-54
2022/08/13 09:55:28;;;;;;;3.40;1.42;;;;;;;;;;5093421;28;20394;-52
2022/08/13 09:57:59;;;;;;;4.25;1.38;;;28.40;69.40;;;;;;5095433;28;20032;-52
2022/08/13 10:00:28;;;;;;;3.95;1.25;;;28.80;48.60;;;;;;5095543;28;20055;-51
2022/08/13 10:02:57;;;;;;;8.27;2.17;;;28.90;48.40;;;;;;5095406;28;20027;-54
2022/08/13 10:05:25;;;;;;;5.15;2.72;;;28.50;83.30;;;;;;5095399;28;20028;-51
2022/08/13 10:07:52;;;;;;;8.50;3.70;;;;;;;;;;5095622;28;20397;-52
2022/08/13 10:10:18;;;;;;;7.57;3.90;;;29.10;83.40;;;;;;5095353;28;20048;-54
2022/08/13 10:12:44;;;;;;;18.50;5.07;;;29.40;83.70;;;;;;5095394;28;20028;-50
2022/08/13 10:15:12;;;;;;;21.67;6.88;;;29.50;83.90;;;;;;5095434;28;20020;-53
2022/08/13 10:17:49;;;;;;;26.60;9.20;;;29.50;57.10;;;;;;5095180;28;20040;-51
2022/08/13 10:20:18;;;;;;;30.33;10.63;;;29.10;47.80;;;;;;5095253;28;20031;-53
2022/08/13 10:22:44;;;;;;;36.58;13.00;;;29.40;83.10;;;;;;5095052;28;20028;-51
2022/08/13 10:25:11;;;;;;;29.45;10.65;;;29.40;83.30;;;;;;5095484;28;20429;-54
2022/08/13 10:27:37;;;;;;;31.85;10.40;;;;;;;;;;5095113;28;20031;-50
2022/08/13 10:30:05;;;;;;;34.80;11.07;;;29.10;55.50;;;;;;5094980;28;20032;-50
2022/08/13 10:32:30;;;;;;;36.50;12.43;;;29.10;82.70;;;;;;5094919;28;20020;-52
2022/08/13 10:34:56;;;;;;;36.92;11.50;;;29.60;83.10;;;;;;5094849;28;20017;-50
2022/08/13 10:37:22;;;;;;;27.33;10.70;;;;;;;;;;5094807;28;20113;-54
2022/08/13 10:39:48;;;;;;;41.08;10.50;;;;;;;;;;5094740;28;20024;-53
2022/08/13 10:42:14;;;;;;;25.23;9.82;;;;;;;;;;5094728;28;20040;-50
2022/08/13 10:44:40;;;;;;;30.10;10.05;;;29.20;82.60;;;;;;5094986;28;20020;-50
2022/08/13 10:47:06;;;;;;;21.20;8.93;;;29.20;82.40;;;;;;5094756;28;20028;-50
2022/08/13 10:49:33;;;;;;;24.05;8.25;;;;;;;;;;5094679;28;20032;-49
2022/08/13 10:51:59;;;;;;;21.55;8.25;;;29.00;82.00;;;;;;5094566;28;20073;-50
2022/08/13 10:54:25;;;;;;;24.73;8.90;;;;;;;;;;5094313;28;20077;-50
2022/08/13 10:56:51;;;;;;;24.55;9.00;;;;;;;;;;5094094;28;20078;-51
2022/08/13 10:59:17;;;;;;;18.58;7.72;;;;;;;;;;5094353;28;20063;-52
2022/08/13 11:01:43;;;;;;;23.42;7.47;;;;;;;;;;5094337;28;20040;-54
2022/08/13 11:04:09;;;;;;;17.73;6.57;;;;;;;;;;5094461;28;20097;-54
2022/08/13 11:06:36;;;;;;;20.45;6.60;;;29.60;46.30;;;;;;5093875;28;20028;-53
2022/08/13 11:09:05;;;;;;;13.50;6.00;;;29.80;81.80;;;;;;5094250;28;20108;-51
2022/08/13 11:11:33;;;;;;;14.57;5.95;;;;;;;;;;5094234;28;20394;-52
2022/08/13 11:13:59;;;;;;;10.82;5.35;;;;;;;;;;5094092;28;20027;-54
2022/08/13 11:19:14;;;;;;;12.80;5.35;;;29.70;46.20;;;;;;5094359;28;20028;-52
2022/08/13 11:21:40;;;;;;;15.48;5.30;;;29.20;80.90;;;;;;5094037;28;20024;-51
2022/08/13 11:24:07;;;;;;;12.10;4.95;;;;;;;;;;5093899;28;20054;-51
2022/08/13 11:26:32;;;;;;;11.15;4.53;;;;;;;;;;5093968;28;20493;-51
2022/08/13 11:28:58;;;;;;;16.45;4.55;;;;;;;;;;5093827;28;20107;-54
2022/08/13 11:31:24;;;;;;;17.60;4.75;;;;;;;;;;5093791;28;20086;-51
2022/08/13 11:33:50;;;;;;;10.02;4.35;;;;;;;;;;5093714;28;20111;-51
2022/08/13 11:36:16;;;;;;;10.95;3.72;;;30.00;81.70;;;;;;5093684;28;20106;-54
2022/08/13 11:38:42;;;;;;;8.65;4.05;;;29.60;81.20;;;;;;5093805;28;20055;-52
2022/08/13 11:41:08;;;;;;;12.10;3.53;;;30.00;81.60;;;;;;5093692;28;20024;-54
2022/08/13 11:43:33;;;;;;;11.07;3.67;;;29.90;69.40;;;;;;5093639;28;20413;-53
2022/08/13 11:45:59;;;;;;;7.28;3.22;;;;;;;;;;5093569;28;20024;-50
2022/08/13 11:48:25;;;;;;;7.30;3.50;;;29.80;45.30;;;;;;5093952;28;20082;-50
2022/08/13 11:50:52;;;;;;;9.23;3.45;;;;;;;;;;5093508;28;20032;-51
2022/08/13 11:53:20;;;;;;;7.78;3.45;;;30.20;81.50;;;;;;5093451;28;20390;-51
2022/08/13 11:55:46;;;;;;;9.90;3.03;;;;;;;;;;5093126;28;20040;-51
2022/08/13 11:58:12;;;;;;;15.45;3.58;;;30.00;81.40;;;;;;5093374;28;20035;-50
2022/08/13 12:00:39;;;;;;;10.77;3.70;;;30.20;81.40;;;;;;5093365;28;20374;-56
2022/08/13 12:03:05;;;;;;;18.77;3.22;;;29.90;45.50;;;;;;5093100;28;20069;-55
2022/08/13 12:05:32;;;;;;;9.20;3.08;;;30.30;54.30;;;;;;5093078;28;20020;-56
2022/08/13 12:07:58;;;;;;;14.70;3.22;;;;;;;;;;5093101;28;20111;-57
2022/08/13 12:10:24;;;;;;;4.53;2.97;;;29.80;81.30;;;;;;5093014;28;20039;-55
2022/08/13 12:12:50;;;;;;;6.05;2.45;;;;;;;;;;5093253;28;20032;-57
2022/08/13 12:15:16;;;;;;;9.98;2.80;;;;;;;;;;5093247;28;20047;-55
2022/08/13 12:17:43;;;;;;;6.82;3.08;;;30.00;46.50;;;;;;5092114;28;20165;-56
2022/08/13 12:20:14;;;;;;;8.93;3.13;;;30.00;46.60;;;;;;5092915;28;20027;-56
2022/08/13 12:22:40;;;;;;;10.65;3.20;;;29.80;81.60;;;;;;5093065;28;20031;-56
2022/08/13 12:25:07;;;;;;;8.27;3.22;;;30.40;82.30;;;;;;5092994;28;20025;-56
2022/08/13 12:27:34;;;;;;;8.38;2.35;;;;;;;;;;5092826;28;20056;-56
2022/08/13 12:30:00;;;;;;;6.90;3.08;;;;;;;;;;5092690;28;20056;-55
2022/08/13 12:32:26;;;;;;;12.20;2.90;;;;;;;;;;5092583;28;20509;-55
2022/08/13 12:34:52;;;;;;;4.82;2.60;;;;;;;;;;5092837;28;20047;-57
2022/08/13 12:37:18;;;;;;;7.10;2.40;;;;;;;;;;5092662;28;20068;-56
2022/08/13 12:39:44;;;;;;;9.15;2.78;;;;;;;;;;5092650;28;20082;-56
2022/08/13 12:42:10;;;;;;;6.75;2.50;;;;;;;;;;5092642;28;20482;-56
2022/08/13 12:44:35;;;;;;;3.70;2.20;;;30.30;76.10;;;;;;5092624;28;20039;-56
2022/08/13 12:47:01;;;;;;;7.70;2.47;;;30.00;45.20;;;;;;5092627;28;20482;-56
2022/08/13 12:49:27;;;;;;;6.00;1.95;;;;;;;;;;5092539;28;20569;-55
2022/08/13 12:51:53;;;;;;;7.45;2.22;;;;;;;;;;5092558;28;20486;-55
2022/08/13 12:54:19;;;;;;;5.60;2.10;;;30.00;55.50;;;;;;5092502;28;20031;-56
2022/08/13 12:56:45;;;;;;;3.05;1.83;;;;;;;;;;5092278;28;20517;-56
2022/08/13 12:59:11;;;;;;;3.15;2.30;;;30.10;44.40;;;;;;5092437;28;20024;-55
2022/08/13 13:01:36;;;;;;;5.30;2.13;;;30.30;81.80;;;;;;5092687;28;20028;-56
2022/08/13 13:04:02;;;;;;;5.72;2.28;;;30.10;81.60;;;;;;5092466;28;20028;-56
2022/08/13 13:06:27;;;;;;;4.43;2.10;;;29.60;81.10;;;;;;5092633;28;20604;-56
2022/08/13 13:08:53;;;;;;;5.30;1.92;;;;;;;;;;5092600;28;20028;-56
2022/08/13 13:11:19;;;;;;;6.07;1.73;;;30.10;52.80;;;;;;5092247;28;20062;-55
2022/08/13 13:13:48;;;;;;;4.25;1.98;;;30.10;46.30;;;;;;5092309;28;20027;-56
2022/08/13 13:16:14;;;;;;;3.88;2.17;;;30.00;81.60;;;;;;5092240;28;20062;-55
2022/08/13 13:18:42;;;;;;;2.72;1.60;;;30.40;81.90;;;;;;5092260;28;20037;-55
2022/08/13 13:21:08;;;;;;;6.47;1.60;;;;;;;;;;5092202;28;20020;-55
2022/08/13 13:23:35;;;;;;;3.55;2.10;;;;;;;;;;5092144;28;20490;-56
2022/08/13 13:26:02;;;;;;;5.97;2.00;;;30.10;44.90;;;;;;5092207;28;20032;-57
2022/08/13 13:28:32;;;;;;;7.05;1.85;;;30.00;81.50;;;;;;5092677;28;20438;-56
2022/08/13 13:30:58;;;;;;;3.13;1.85;;;30.40;82.00;;;;;;5096407;28;20099;-57